Latest Weather Observations for Brisbane

IDQ60801

Issued at 2:05 pm EST Tuesday 23 September 2014 (issued every 30 minutes, with the page automatically refreshed every 10 minutes)

About weather observations | Map of weather stations | Latest weather observations for QLD | Other Formats
Station Details ID: 040913 Name: BRISBANE Lat: -27.48 Lon: 153.04 Height: 8.13 m
Data from the previous 72 hours. | See also: Recent months at Brisbane
Date/Time
EST
Temp
°C
App
Temp
°C
Dew
Point
Rel
Hum
%
Delta-T
°C
Wind Press
QNH
hPa
Press
MSL
hPa
Rain
since 9 am
mm
Dir
 
Spd
km/h
Gust
km/h
Spd
kts
Gust
kts
23/02:00pm 23.2 20.0 8.5 39 7.8 ENE 15 24 8 13 1025.4 1025.4 0.0
23/01:30pm 22.7 18.8 8.8 41 7.4 ESE 19 30 10 16 1025.8 1025.8 0.0
23/01:00pm 23.0 19.5 10.1 44 7.0 E 19 26 10 14 1026.3 1026.3 0.0
23/12:30pm 22.9 19.3 10.0 44 7.0 E 19 28 10 15 1026.6 1026.6 0.0
23/12:00pm 23.5 20.8 10.2 43 7.3 ESE 15 26 8 14 1027.0 1027.0 0.0
23/11:30am 22.1 19.6 10.9 49 6.2 ESE 15 28 8 15 1027.6 1027.6 0.0
23/11:00am 22.2 20.3 11.9 52 5.8 E 13 19 7 10 1028.2 1028.2 0.0
23/10:30am 21.1 19.7 12.3 57 5.0 ESE 11 22 6 12 1028.6 1028.6 0.0
23/10:00am 20.5 18.2 11.7 57 4.9 ESE 15 30 8 16 1028.6 1028.6 0.0
23/09:30am 21.6 20.0 11.6 53 5.6 SE 11 19 6 10 1028.5 1028.5 0.0
23/09:00am 21.1 19.4 11.2 53 5.4 SSE 11 19 6 10 1028.7 1028.7 3.0
23/08:30am 19.7 17.3 10.1 54 5.2 SSE 13 22 7 12 1028.8 1028.8 3.0
23/08:00am 19.0 18.1 10.6 58 4.5 SE 6 11 3 6 1028.6 1028.6 3.0
23/07:30am 18.5 17.5 10.3 59 4.4 S 6 9 3 5 1028.2 1028.2 3.0
23/07:00am 17.1 16.6 10.9 67 3.3 S 4 11 2 6 1027.8 1027.8 3.0
23/06:30am 16.0 15.7 11.6 75 2.4 SSW 4 6 2 3 1027.5 1027.5 3.0
23/06:00am 15.6 15.7 11.6 77 2.1 SW 2 4 1 2 1027.4 1027.4 3.0
23/05:30am 15.7 15.8 11.5 76 2.3 SW 2 6 1 3 1027.2 1027.2 3.0
23/05:00am 15.8 15.5 11.6 76 2.3 SSW 4 7 2 4 1026.9 1026.9 3.0
23/04:30am 15.7 15.5 11.9 78 2.1 SW 4 6 2 3 1026.6 1026.6 3.0
23/04:00am 15.6 15.8 11.8 78 2.0 W 2 6 1 3 1026.4 1026.4 3.0
23/03:30am 15.9 15.7 11.9 77 2.2 SW 4 11 2 6 1025.9 1025.9 3.0
23/03:00am 15.9 15.8 12.1 78 2.1 SW 4 7 2 4 1026.1 1026.1 3.0
23/02:30am 16.0 16.0 12.4 79 2.0 SW 4 6 2 3 1026.2 1026.2 3.0
23/02:00am 16.1 16.6 12.8 81 1.8 SW 2 6 1 3 1026.5 1026.5 3.0
23/01:30am 16.2 16.4 12.9 81 1.8 WSW 4 6 2 3 1026.8 1026.8 3.0
23/01:00am 16.2 16.1 13.3 83 1.6 W 6 7 3 4 1027.0 1027.0 3.0
23/12:30am 16.2 16.9 13.3 83 1.6 W 2 4 1 2 1027.3 1027.3 3.0
23/12:00am 16.1 16.9 13.6 85 1.4 WSW 2 4 1 2 1027.5 1027.5 3.0
 
Date/Time
EST
Temp
°C
App
Temp
°C
Dew
Point
Rel
Hum
%
Delta-T
°C
Wind Press
QNH
hPa
Press
MSL
hPa
Rain
since 9 am
mm
Dir
 
Spd
km/h
Gust
km/h
Spd
kts
Gust
kts
22/11:30pm 16.0 16.8 13.7 86 1.3 W 2 6 1 3 1027.6 1027.6 3.0
22/11:00pm 15.9 16.7 13.7 87 1.2 SW 2 6 1 3 1027.7 1027.7 3.0
22/10:30pm 16.2 16.9 13.3 83 1.6 S 2 7 1 4 1028.3 1028.3 2.8
22/10:00pm 16.2 17.0 13.7 85 1.4 S 2 7 1 4 1028.2 1028.2 2.6
22/09:30pm 16.1 16.5 13.6 85 1.4 S 4 9 2 5 1028.3 1028.3 2.6
22/09:00pm 16.2 16.1 13.3 83 1.6 S 6 9 3 5 1028.5 1028.5 2.6
22/08:30pm 16.4 16.2 13.5 83 1.6 SSE 7 15 4 8 1028.7 1028.7 2.6
22/08:00pm 16.3 16.1 13.6 84 1.5 SSE 7 15 4 8 1028.2 1028.2 2.6
22/07:30pm 16.3 15.4 13.6 84 1.5 SE 11 22 6 12 1027.6 1027.6 2.6
22/07:00pm 16.5 15.6 13.6 83 1.6 SE 11 20 6 11 1027.6 1027.6 2.6
22/06:30pm 16.7 15.9 14.0 84 1.5 SE 11 20 6 11 1027.3 1027.3 2.6
22/06:00pm 17.0 16.7 14.5 85 1.4 ESE 9 19 5 10 1027.1 1027.1 2.6
22/05:30pm 18.9 17.5 13.3 70 3.2 SE 13 26 7 14 1026.9 1026.9 0.0
22/05:00pm 19.8 18.4 12.1 61 4.3 ESE 11 24 6 13 1026.5 1026.5 0.0
22/04:30pm 20.1 18.1 11.6 58 4.7 E 13 26 7 14 1026.2 1026.2 0.0
22/04:00pm 20.6 18.3 11.8 57 4.9 E 15 24 8 13 1025.9 1025.9 0.0
22/03:30pm 20.9 18.2 10.4 51 5.7 E 15 28 8 15 1025.8 1025.8 0.0
22/03:00pm 21.4 18.6 11.4 53 5.5 E 17 32 9 17 1025.5 1025.5 0.0
22/02:30pm 21.6 18.6 10.7 50 6.0 ESE 17 33 9 18 1025.6 1025.6 0.0
22/02:00pm 21.8 19.2 10.6 49 6.1 E 15 26 8 14 1025.7 1025.7 0.0
22/01:30pm 22.9 19.7 11.3 48 6.5 E 19 30 10 16 1025.9 1025.9 0.0
22/01:00pm 22.0 18.5 10.2 47 6.4 E 19 30 10 16 1026.3 1026.3 0.0
22/12:30pm 22.1 18.4 9.6 45 6.7 E 19 32 10 17 1026.6 1026.6 0.0
22/12:00pm 22.6 19.2 10.4 46 6.7 E 19 30 10 16 1026.7 1026.7 0.0
22/11:30am 22.3 19.1 9.8 45 6.8 E 17 26 9 14 1027.1 1027.1 0.0
22/11:00am 22.1 19.5 12.1 53 5.6 E 17 28 9 15 1027.6 1027.6 0.0
22/10:30am 21.0 19.2 12.2 57 4.9 SE 13 26 7 14 1027.8 1027.8 0.0
22/10:00am 21.1 19.5 13.8 63 4.2 SE 15 26 8 14 1027.9 1027.9 0.0
22/09:30am 19.8 18.1 12.6 63 4.0 SSE 13 24 7 13 1027.7 1027.7 0.0
22/09:00am 20.2 19.7 13.9 67 3.6 SSE 9 17 5 9 1027.7 1027.7 0.6
22/08:30am 19.5 18.2 12.5 64 3.9 SSE 11 20 6 11 1027.7 1027.7 0.6
22/08:00am 19.0 18.2 13.0 68 3.4 SSE 9 17 5 9 1027.6 1027.6 0.6
22/07:30am 17.2 16.3 12.5 74 2.6 SE 9 20 5 11 1027.2 1027.2 0.6
22/07:00am 16.8 16.3 12.7 77 2.3 SSE 7 13 4 7 1026.9 1026.9 0.6
22/06:30am 14.9 15.2 12.2 84 1.5 WSW 2 2 1 1 1026.8 1026.8 0.6
22/06:00am 14.6 14.5 12.1 85 1.3 WSW 4 7 2 4 1026.6 1026.6 0.6
22/05:30am 14.3 14.6 12.2 87 1.1 SW 2 6 1 3 1026.2 1026.2 0.6
22/05:00am 13.6 14.1 11.7 88 1.0 CALM 0 0 0 0 1026.0 1026.0 0.6
22/04:30am 13.9 14.0 11.6 86 1.2 SSW 2 6 1 3 1025.6 1025.6 0.6
22/04:00am 14.2 14.1 12.1 87 1.1 W 4 6 2 3 1025.3 1025.3 0.6
22/03:30am 14.4 14.0 12.4 88 1.1 W 6 7 3 4 1025.3 1025.3 0.6
22/03:00am 14.7 14.7 12.4 86 1.2 SW 4 7 2 4 1025.5 1025.5 0.6
22/02:30am 14.9 15.0 12.8 87 1.2 WSW 4 7 2 4 1026.0 1026.0 0.6
22/02:00am 14.8 14.9 12.8 88 1.1 W 4 7 2 4 1026.3 1026.3 0.4
22/01:30am 15.0 15.5 12.9 87 1.2 SSW 2 6 1 3 1026.4 1026.4 0.4
22/01:00am 15.3 15.9 13.0 86 1.3 SW 2 6 1 3 1026.8 1026.8 0.4
22/12:30am 15.5 15.8 13.3 87 1.2 SW 4 7 2 4 1026.8 1026.8 0.4
22/12:00am 15.6 16.3 13.3 86 1.3 SW 2 6 1 3 1027.0 1027.0 0.4
 
Date/Time
EST
Temp
°C
App
Temp
°C
Dew
Point
Rel
Hum
%
Delta-T
°C
Wind Press
QNH
hPa
Press
MSL
hPa
Rain
since 9 am
mm
Dir
 
Spd
km/h
Gust
km/h
Spd
kts
Gust
kts
21/11:30pm 15.8 16.9 13.5 86 1.3 CALM 0 4 0 2 1027.2 1027.2 0.4
21/11:00pm 16.4 15.6 12.9 80 1.9 SSE 9 17 5 9 1027.2 1027.2 0.0
21/10:30pm 16.8 16.3 12.1 74 2.6 SSE 6 13 3 7 1027.4 1027.4 0.0
21/10:00pm 17.0 16.5 12.1 73 2.7 S 6 9 3 5 1027.5 1027.5 0.0
21/09:30pm 16.9 16.4 12.2 74 2.6 SSE 6 9 3 5 1027.6 1027.6 0.0
21/09:00pm 16.9 16.4 12.2 74 2.6 SE 6 13 3 7 1027.6 1027.6 0.0
21/08:30pm 17.1 16.0 12.0 72 2.8 ESE 9 15 5 8 1027.4 1027.4 0.0
21/08:00pm 17.4 16.0 12.3 72 2.8 ESE 11 24 6 13 1027.3 1027.3 0.0
21/07:30pm 17.5 15.7 12.2 71 2.9 SE 13 24 7 13 1027.0 1027.0 0.0
21/07:00pm 17.8 16.8 12.3 70 3.0 SE 9 17 5 9 1026.4 1026.4 0.0
21/06:30pm 18.1 16.6 11.9 67 3.4 ESE 11 20 6 11 1026.2 1026.2 0.0
21/06:00pm 18.8 17.4 12.3 66 3.6 ESE 11 19 6 10 1025.7 1025.7 0.0
21/05:30pm 19.4 17.5 11.9 62 4.2 ESE 13 22 7 12 1025.2 1025.2 0.0
21/05:00pm 20.0 17.7 11.8 59 4.5 ESE 15 28 8 15 1024.6 1024.6 0.0
21/04:30pm 21.0 19.1 11.9 56 5.1 ESE 13 24 7 13 1024.3 1024.3 0.0
21/04:00pm 21.3 18.1 11.1 52 5.6 ESE 19 32 10 17 1024.1 1024.1 0.0
21/03:30pm 22.2 19.3 11.0 49 6.2 ESE 17 33 9 18 1023.9 1023.9 0.0
21/03:00pm 22.6 20.0 10.7 47 6.5 ESE 15 28 8 15 1023.9 1023.9 0.0
21/02:30pm 22.7 19.2 8.8 41 7.4 E 17 26 9 14 1023.6 1023.6 0.0
21/02:00pm 23.1 20.2 9.5 42 7.3 E 15 28 8 15 1023.6 1023.6 0.0
21/01:30pm 22.7 19.0 8.0 39 7.7 ESE 17 32 9 17 1023.9 1023.9 0.0
21/01:00pm 23.8 20.9 8.2 37 8.2 SE 13 24 7 13 1024.1 1024.1 0.0
21/12:30pm 23.1 19.5 9.8 43 7.2 E 19 32 10 17 1024.5 1024.5 0.0
21/12:00pm 22.9 19.8 9.0 41 7.4 ESE 15 28 8 15 1025.1 1025.1 0.0
21/11:30am 21.9 18.9 9.4 45 6.7 ESE 15 24 8 13 1025.3 1025.3 0.0
21/11:00am 22.4 19.5 9.6 44 6.9 ESE 15 26 8 14 1025.5 1025.5 0.0
21/10:30am 21.8 19.8 10.0 47 6.4 SE 11 20 6 11 1025.7 1025.7 0.0
21/10:00am 21.9 20.8 10.7 49 6.1 SE 7 15 4 8 1026.2 1026.2 0.0
21/09:30am 21.5 20.0 10.6 50 6.0 SE 9 22 5 12 1026.5 1026.5 0.0
21/09:00am 20.8 19.3 10.6 52 5.5 SSE 9 17 5 9 1026.5 1026.5 0.0
21/08:30am 19.4 18.3 9.9 54 5.1 SSW 6 13 3 7 1026.7 1026.7 0.0
21/08:00am 17.3 16.1 9.5 60 4.1 WSW 6 11 3 6 1026.4 1026.4 0.0
21/07:30am 16.0 15.1 9.4 65 3.4 SW 4 9 2 5 1026.2 1026.2 0.0
21/07:00am 15.3 14.8 9.2 67 3.1 SW 2 7 1 4 1026.1 1026.1 0.0
21/06:30am 13.7 12.8 9.2 74 2.3 SW 4 9 2 5 1025.7 1025.7 0.0
21/06:00am 13.0 11.6 8.9 76 2.0 SW 6 9 3 5 1025.3 1025.3 0.0
21/05:30am 12.9 12.0 9.2 78 1.9 SW 4 9 2 5 1025.0 1025.0 0.0
21/05:00am 13.1 11.8 9.2 77 2.0 SW 6 9 3 5 1024.8 1024.8 0.0
21/04:30am 13.3 12.1 9.4 77 2.0 SW 6 9 3 5 1024.6 1024.6 0.0
21/04:00am 13.1 12.2 9.4 78 1.9 SW 4 7 2 4 1024.3 1024.3 0.0
21/03:30am 13.3 12.8 9.5 78 1.9 WSW 2 6 1 3 1024.1 1024.1 0.0
21/03:00am 13.6 13.1 9.3 75 2.2 SW 2 7 1 4 1024.2 1024.2 0.0
21/02:30am 13.8 13.3 9.5 75 2.2 WSW 2 6 1 3 1024.4 1024.4 0.0
21/02:00am 14.2 13.5 10.0 76 2.2 SW 4 9 2 5 1024.6 1024.6 0.0
21/01:30am 14.3 14.0 10.1 76 2.2 WSW 2 6 1 3 1024.7 1024.7 0.0
21/01:00am 14.6 14.4 10.4 76 2.2 WSW 2 4 1 2 1024.9 1024.9 0.0
21/12:30am 15.3 15.1 10.3 72 2.6 SSW 2 7 1 4 1024.9 1024.9 0.0
21/12:00am 15.4 15.1 10.2 71 2.7 S 2 4 1 2 1024.8 1024.8 0.0
 
Date/Time
EST
Temp
°C
App
Temp
°C
Dew
Point
Rel
Hum
%
Delta-T
°C
Wind Press
QNH
hPa
Press
MSL
hPa
Rain
since 9 am
mm
Dir
 
Spd
km/h
Gust
km/h
Spd
kts
Gust
kts
20/11:30pm 15.6 15.3 11.4 76 2.3 S 4 7 2 4 1024.6 1024.6 0.0
20/11:00pm 14.4 14.5 10.2 76 2.2 CALM 0 0 0 0 1024.6 1024.6 0.0
20/10:30pm 15.2 15.4 10.4 73 2.5 CALM 0 0 0 0 1024.5 1024.5 0.0
20/10:00pm 15.9 16.3 11.1 73 2.6 CALM 0 0 0 0 1024.6 1024.6 0.0
20/09:30pm 15.6 15.8 10.4 71 2.7 CALM 0 0 0 0 1024.6 1024.6 0.0
20/09:00pm 16.5 16.7 10.4 67 3.2 CALM 0 4 0 2 1024.4 1024.4 0.0
20/08:30pm 17.8 17.3 10.9 64 3.7 SE 4 9 2 5 1024.0 1024.0 0.0
20/08:00pm 18.5 17.9 11.6 64 3.8 ESE 6 11 3 6 1023.6 1023.6 0.0
20/07:30pm 18.7 17.5 11.5 63 3.9 ESE 9 15 5 8 1023.1 1023.1 0.0
20/07:00pm 18.9 18.0 11.5 62 4.0 ESE 7 15 4 8 1022.6 1022.6 0.0
20/06:30pm 19.0 18.1 11.3 61 4.2 ESE 7 15 4 8 1022.2 1022.2 0.0
20/06:00pm 19.1 17.5 11.4 61 4.2 ESE 11 20 6 11 1021.6 1021.6 0.0
20/05:30pm 19.3 17.4 11.8 62 4.1 E 13 22 7 12 1021.0 1021.0 0.0
20/05:00pm 19.9 18.0 11.9 60 4.4 E 13 28 7 15 1020.2 1020.2 0.0
20/04:30pm 20.1 17.4 11.6 58 4.7 E 17 32 9 17 1019.6 1019.6 0.0
20/04:00pm 20.7 18.0 11.6 56 5.0 E 17 26 9 14 1019.6 1019.6 0.0
20/03:30pm 20.7 18.1 12.1 58 4.8 E 17 32 9 17 1019.1 1019.1 0.0
20/03:00pm 21.9 19.7 12.2 54 5.5 E 15 24 8 13 1018.8 1018.8 0.0
20/02:30pm 22.2 20.0 12.2 53 5.6 E 15 22 8 12 1018.7 1018.7 0.0

Other Formats:

Comma delimited format used in spreadsheet applications
http://www.bom.gov.au/fwo/IDQ60801/IDQ60801.94576.axf

JavaScript Object Notation format (JSON) in row-major order
http://www.bom.gov.au/fwo/IDQ60801/IDQ60801.94576.json